createdAt,value
2023-03-08T00:01:12.269Z,94982.09
2023-03-08T00:03:40.610Z,94978.81
2023-03-08T00:06:13.036Z,94981.97
2023-03-08T00:08:41.650Z,94990.31
2023-03-08T00:11:11.446Z,94975.25
2023-03-08T00:13:39.818Z,94991.56
2023-03-08T00:16:10.390Z,94994.59
2023-03-08T00:18:38.477Z,94989.88
2023-03-08T00:21:08.083Z,94996.47
2023-03-08T00:23:37.807Z,95002.06
2023-03-08T00:26:06.715Z,95004.63
2023-03-08T00:28:35.052Z,95005.25
2023-03-08T00:31:05.166Z,95003.91
2023-03-08T00:33:33.921Z,95007.94
2023-03-08T00:36:03.508Z,95005.50
2023-03-08T00:38:32.905Z,95003.41
2023-03-08T00:41:02.665Z,95008.84
2023-03-08T00:43:31.075Z,95014.00
2023-03-08T00:45:59.503Z,95000.56
2023-03-08T00:48:28.374Z,94992.28
2023-03-08T00:50:56.692Z,94994.78
2023-03-08T00:53:25.024Z,94999.13
2023-03-08T00:55:54.548Z,94999.03
2023-03-08T00:58:24.935Z,95004.63
2023-03-08T01:00:53.672Z,95000.09
2023-03-08T01:03:22.875Z,95006.31
2023-03-08T01:05:53.450Z,95006.63
2023-03-08T01:08:22.018Z,95009.91
2023-03-08T01:10:50.476Z,95000.88
2023-03-08T01:13:19.840Z,94999.44
2023-03-08T01:15:49.467Z,95005.88
2023-03-08T01:18:18.018Z,94997.63
2023-03-08T01:20:46.505Z,94995.44
2023-03-08T01:23:14.849Z,94990.09
2023-03-08T01:25:43.347Z,94989.78
2023-03-08T01:28:11.654Z,94991.00
2023-03-08T01:30:40.043Z,94989.66
2023-03-08T01:33:09.691Z,94994.94
2023-03-08T01:35:39.082Z,94986.75
2023-03-08T01:38:07.387Z,94992.41
2023-03-08T01:40:35.704Z,94986.91
2023-03-08T01:43:15.359Z,94986.56
2023-03-08T01:46:11.076Z,94974.47
2023-03-08T01:48:43.865Z,94975.25
2023-03-08T01:51:14.564Z,94970.31
2023-03-08T01:53:43.832Z,94975.63
2023-03-08T01:56:15.278Z,94976.00
2023-03-08T01:58:45.643Z,94966.41
2023-03-08T02:01:13.979Z,94964.84
2023-03-08T02:03:43.695Z,94963.19
2023-03-08T02:06:12.089Z,94961.22
2023-03-08T02:08:40.399Z,94960.06
2023-03-08T02:11:08.677Z,94959.22
2023-03-08T02:13:36.949Z,94958.91
2023-03-08T02:16:06.509Z,94953.97
2023-03-08T02:18:34.793Z,94955.03
2023-03-08T02:21:04.715Z,94948.06
2023-03-08T02:23:34.455Z,94945.94
2023-03-08T02:26:04.779Z,94946.94
2023-03-08T02:28:33.682Z,94947.78
2023-03-08T02:31:02.090Z,94946.78
2023-03-08T02:33:30.625Z,94944.31
2023-03-08T02:35:58.972Z,94949.09
2023-03-08T02:38:27.371Z,94950.59
2023-03-08T02:40:57.039Z,94944.44
2023-03-08T02:43:25.378Z,94945.72
2023-03-08T02:45:53.690Z,94940.38
2023-03-08T02:48:21.999Z,94934.78
2023-03-08T02:50:50.206Z,94929.06
2023-03-08T02:53:18.528Z,94932.72
2023-03-08T02:55:46.840Z,94929.28
2023-03-08T02:58:17.039Z,94937.59
2023-03-08T03:00:45.380Z,94935.28
2023-03-08T03:03:13.931Z,94939.84
2023-03-08T03:05:44.123Z,94945.47
2023-03-08T03:08:13.039Z,94935.28
2023-03-08T03:10:41.763Z,94930.66
2023-03-08T03:13:10.188Z,94940.16
2023-03-08T03:15:40.603Z,94929.38
2023-03-08T03:18:08.897Z,94930.97
2023-03-08T03:20:37.175Z,94936.63
2023-03-08T03:23:06.465Z,94936.22
2023-03-08T03:25:37.980Z,94940.06
2023-03-08T03:28:06.448Z,94929.34
2023-03-08T03:30:34.743Z,94927.44
2023-03-08T03:33:04.366Z,94930.22
2023-03-08T03:35:32.655Z,94924.19
2023-03-08T03:38:00.928Z,94918.25
2023-03-08T03:40:29.164Z,94923.84
2023-03-08T03:42:57.392Z,94920.03
2023-03-08T03:45:25.652Z,94921.72
2023-03-08T03:47:53.882Z,94923.19
2023-03-08T03:50:23.502Z,94921.72
2023-03-08T03:52:51.750Z,94922.53
2023-03-08T03:55:20.009Z,94927.59
2023-03-08T03:57:48.328Z,94923.84
2023-03-08T04:00:17.683Z,94924.81
2023-03-08T04:02:45.962Z,94928.25
2023-03-08T04:05:14.216Z,94925.09
2023-03-08T04:07:43.827Z,94924.00
2023-03-08T04:10:12.732Z,94919.66
2023-03-08T04:12:41.021Z,94920.63
2023-03-08T04:15:10.140Z,94918.72
2023-03-08T04:17:38.410Z,94917.59
2023-03-08T04:20:08.026Z,94917.34
2023-03-08T04:22:36.300Z,94909.31
2023-03-08T04:25:06.761Z,94906.88
2023-03-08T04:27:34.997Z,94902.63
2023-03-08T04:30:03.700Z,94897.81
2023-03-08T04:32:32.228Z,94885.97
2023-03-08T04:35:00.618Z,94887.63
2023-03-08T04:37:29.070Z,94887.88
2023-03-08T04:39:57.438Z,94887.31
2023-03-08T04:42:27.017Z,94881.72
2023-03-08T04:44:55.595Z,94875.59
2023-03-08T04:47:23.889Z,94880.59
2023-03-08T04:49:52.157Z,94874.84
2023-03-08T04:52:20.414Z,94867.78
2023-03-08T04:54:48.643Z,94858.16
2023-03-08T04:57:16.866Z,94857.41
2023-03-08T04:59:46.597Z,94851.19
2023-03-08T05:02:14.992Z,94854.56
2023-03-08T05:04:43.361Z,94844.28
2023-03-08T05:07:11.682Z,94841.25
2023-03-08T05:09:40.002Z,94826.16
2023-03-08T05:12:08.794Z,94815.53
2023-03-08T05:14:37.042Z,94812.50
2023-03-08T05:17:06.740Z,94809.72
2023-03-08T05:19:35.018Z,94812.22
2023-03-08T05:22:03.251Z,94819.78
2023-03-08T05:24:32.132Z,94819.88
2023-03-08T05:27:00.369Z,94806.09
2023-03-08T05:29:28.622Z,94797.16
2023-03-08T05:31:58.789Z,94796.25
2023-03-08T05:34:28.407Z,94795.34
2023-03-08T05:36:56.698Z,94803.31
2023-03-08T05:39:24.973Z,94808.63
2023-03-08T05:41:53.271Z,94801.13
2023-03-08T05:44:21.543Z,94783.59
2023-03-08T05:46:51.420Z,94780.44
2023-03-08T05:49:19.718Z,94780.16
2023-03-08T05:51:49.371Z,94772.16
2023-03-08T05:54:17.671Z,94762.66
2023-03-08T05:56:45.929Z,94760.97
2023-03-08T05:59:14.285Z,94768.22
2023-03-08T06:01:42.563Z,94771.16
2023-03-08T06:04:10.789Z,94780.78
2023-03-08T06:06:39.054Z,94782.97
2023-03-08T06:09:08.713Z,94780.78
2023-03-08T06:11:36.958Z,94784.25
2023-03-08T06:14:05.142Z,94792.06
2023-03-08T06:16:33.397Z,94790.03
2023-03-08T06:19:02.697Z,94792.09
2023-03-08T06:21:31.014Z,94788.16
2023-03-08T06:23:59.242Z,94783.09
2023-03-08T06:26:28.897Z,94783.69
2023-03-08T06:28:57.124Z,94778.75
2023-03-08T06:31:25.343Z,94784.06
2023-03-08T06:33:53.662Z,94789.69
2023-03-08T06:36:22.587Z,94789.06
2023-03-08T06:38:50.976Z,94780.00
2023-03-08T06:41:21.380Z,94784.59
2023-03-08T06:43:51.041Z,94781.44
2023-03-08T06:46:20.208Z,94778.66
2023-03-08T06:48:49.382Z,94779.53
2023-03-08T06:51:18.137Z,94784.47
2023-03-08T06:53:46.925Z,94786.13
2023-03-08T06:56:16.495Z,94785.56
2023-03-08T06:58:45.052Z,94796.34
2023-03-08T07:01:15.137Z,94793.00
2023-03-08T07:03:45.314Z,94797.16
2023-03-08T07:06:13.640Z,94795.94
2023-03-08T07:08:42.476Z,94796.59
2023-03-08T07:11:11.163Z,94802.09
2023-03-08T07:13:39.714Z,94795.78
2023-03-08T07:16:09.510Z,94801.28
2023-03-08T07:18:39.264Z,94791.88
2023-03-08T07:21:08.024Z,94791.66
2023-03-08T07:23:36.303Z,94805.19
2023-03-08T07:26:06.197Z,94794.03
2023-03-08T07:28:34.510Z,94799.81
2023-03-08T07:31:02.750Z,94807.56
2023-03-08T07:33:31.192Z,94807.25
2023-03-08T07:36:02.683Z,94811.47
2023-03-08T07:38:31.087Z,94798.72
2023-03-08T07:40:59.505Z,94791.03
2023-03-08T07:43:29.242Z,94800.13
2023-03-08T07:46:00.667Z,94804.41
2023-03-08T07:48:29.593Z,94795.56
2023-03-08T07:51:03.815Z,94796.81
2023-03-08T07:53:32.462Z,94795.28
2023-03-08T07:56:01.128Z,94788.34
2023-03-08T07:58:29.604Z,94779.44
2023-03-08T08:00:58.126Z,94777.13
2023-03-08T08:03:26.551Z,94774.06
2023-03-08T08:05:54.889Z,94765.38
2023-03-08T08:08:24.497Z,94759.03
2023-03-08T08:10:52.766Z,94751.59
2023-03-08T08:13:21.040Z,94744.84
2023-03-08T08:15:54.151Z,94753.28
2023-03-08T08:18:22.388Z,94741.75
2023-03-08T08:20:50.704Z,94735.94
2023-03-08T08:23:18.950Z,94727.28
2023-03-08T08:25:50.316Z,94722.44
2023-03-08T08:28:18.541Z,94704.94
2023-03-08T08:30:56.797Z,94707.41
2023-03-08T08:33:25.057Z,94702.75
2023-03-08T08:35:53.314Z,94707.78
2023-03-08T08:38:21.621Z,94692.56
2023-03-08T08:40:51.793Z,94682.09
2023-03-08T08:43:20.002Z,94673.19
2023-03-08T08:45:50.290Z,94684.22
2023-03-08T08:48:18.581Z,94673.03
2023-03-08T08:50:46.913Z,94666.56
2023-03-08T08:53:15.323Z,94668.56
2023-03-08T08:55:45.554Z,94663.25
2023-03-08T08:58:15.721Z,94651.94
2023-03-08T09:00:44.812Z,94642.03
2023-03-08T09:03:13.062Z,94635.03
2023-03-08T09:05:42.520Z,94609.38
2023-03-08T09:08:11.340Z,94610.94
2023-03-08T09:10:41.708Z,94594.16
2023-03-08T09:13:10.063Z,94584.53
2023-03-08T09:15:39.757Z,94583.53
2023-03-08T09:18:08.037Z,94580.50
2023-03-08T09:20:36.297Z,94586.81
2023-03-08T09:23:04.568Z,94587.22
2023-03-08T09:25:32.858Z,94564.84
2023-03-08T09:28:01.100Z,94563.03
2023-03-08T09:30:30.377Z,94560.72
2023-03-08T09:33:00.107Z,94551.59
2023-03-08T09:35:28.436Z,94561.38
2023-03-08T09:37:56.691Z,94546.34
2023-03-08T09:40:26.508Z,94552.81
2023-03-08T09:42:56.427Z,94558.50
2023-03-08T09:45:25.716Z,94557.75
2023-03-08T09:48:00.107Z,94550.41
2023-03-08T09:50:43.167Z,94543.44
2023-03-08T09:53:18.043Z,94550.78
2023-03-08T09:55:49.926Z,94539.59
2023-03-08T09:58:24.019Z,94540.41
2023-03-08T10:00:53.345Z,94532.31
2023-03-08T10:03:36.332Z,94527.69
2023-03-08T10:06:12.941Z,94533.03
2023-03-08T10:08:47.802Z,94538.91
2023-03-08T10:11:19.729Z,94549.28
2023-03-08T10:13:51.171Z,94557.34
2023-03-08T10:16:23.548Z,94531.47
2023-03-08T10:18:53.207Z,94525.34
2023-03-08T10:21:25.336Z,94524.25
2023-03-08T10:23:59.447Z,94514.00
2023-03-08T10:26:28.251Z,94519.16
2023-03-08T10:28:56.603Z,94524.34
2023-03-08T10:31:27.198Z,94524.63
2023-03-08T10:34:02.919Z,94515.31
2023-03-08T10:36:32.474Z,94529.44
2023-03-08T10:39:06.657Z,94530.84
2023-03-08T10:41:41.417Z,94533.19
2023-03-08T10:44:15.032Z,94538.84
2023-03-08T10:46:49.000Z,94533.69
2023-03-08T10:49:19.059Z,94530.53
2023-03-08T10:51:56.736Z,94540.38
2023-03-08T10:54:24.983Z,94533.63
2023-03-08T10:56:56.205Z,94534.59
2023-03-08T10:59:29.696Z,94551.75
2023-03-08T11:02:00.628Z,94542.88
2023-03-08T11:04:30.146Z,94546.91
2023-03-08T11:07:00.169Z,94556.69
2023-03-08T11:09:30.105Z,94545.88
2023-03-08T11:11:59.271Z,94545.22
2023-03-08T11:14:29.744Z,94539.97
2023-03-08T11:17:15.136Z,94537.81
2023-03-08T11:19:59.838Z,94529.69
2023-03-08T11:22:39.797Z,94529.16
2023-03-08T11:25:20.149Z,94532.09
2023-03-08T11:28:05.831Z,94518.84
2023-03-08T11:30:43.922Z,94508.78
2023-03-08T11:33:34.676Z,94505.44
2023-03-08T11:36:07.251Z,94507.56
2023-03-08T11:38:37.363Z,94506.38
2023-03-08T11:41:14.664Z,94491.63
2023-03-08T11:43:54.301Z,94471.59
2023-03-08T11:46:24.745Z,94479.00
2023-03-08T11:49:15.217Z,94455.47
2023-03-08T11:51:47.968Z,94444.47
2023-03-08T11:54:23.474Z,94431.06
2023-03-08T11:56:52.889Z,94435.06
2023-03-08T11:59:26.241Z,94423.47
2023-03-08T12:01:58.646Z,94431.81
2023-03-08T12:04:31.027Z,94424.56
2023-03-08T12:07:02.419Z,94418.38
2023-03-08T12:09:35.653Z,94418.53
2023-03-08T12:12:08.942Z,94399.50
2023-03-08T12:14:45.952Z,94403.03
2023-03-08T12:17:19.550Z,94395.34
2023-03-08T12:19:49.011Z,94387.88
2023-03-08T12:22:27.508Z,94381.91
2023-03-08T12:25:01.979Z,94374.75
2023-03-08T12:27:36.322Z,94385.25
2023-03-08T12:30:15.188Z,94381.56
2023-03-08T12:32:44.155Z,94375.88
2023-03-08T12:35:28.394Z,94368.69
2023-03-08T12:37:58.331Z,94387.00
2023-03-08T12:40:32.137Z,94378.75
2023-03-08T12:43:09.573Z,94377.69
2023-03-08T12:45:38.784Z,94373.34
2023-03-08T12:48:21.109Z,94381.34
2023-03-08T12:51:00.188Z,94366.81
2023-03-08T12:53:35.533Z,94357.38
2023-03-08T12:56:14.336Z,94360.25
2023-03-08T12:58:50.558Z,94359.91
2023-03-08T13:01:30.090Z,94355.25
2023-03-08T13:03:58.890Z,94350.41
2023-03-08T13:07:04.321Z,94348.13
2023-03-08T13:09:35.263Z,94361.19
2023-03-08T13:12:21.515Z,94361.75
2023-03-08T13:15:01.870Z,94351.13
2023-03-08T13:17:39.462Z,94372.47
2023-03-08T13:20:18.901Z,94367.34
2023-03-08T13:22:59.062Z,94356.13
2023-03-08T13:25:38.732Z,94355.78
2023-03-08T13:28:11.409Z,94357.97
2023-03-08T13:30:47.056Z,94369.88
2023-03-08T13:33:17.533Z,94355.25
2023-03-08T13:35:55.877Z,94365.22
2023-03-08T13:38:25.465Z,94355.84
2023-03-08T13:40:54.637Z,94351.91
2023-03-08T13:43:25.487Z,94361.22
2023-03-08T13:45:55.748Z,94351.69
2023-03-08T13:48:24.399Z,94376.22
2023-03-08T13:50:53.519Z,94376.91
2023-03-08T13:53:23.786Z,94364.56
2023-03-08T13:55:54.402Z,94332.41
2023-03-08T13:58:27.119Z,94347.44
2023-03-08T14:01:03.117Z,94355.06
2023-03-08T14:03:33.911Z,94360.38
2023-03-08T14:06:02.557Z,94355.06
2023-03-08T14:08:30.879Z,94338.78
2023-03-08T14:11:01.563Z,94327.31
2023-03-08T14:13:33.681Z,94339.88
2023-03-08T14:16:03.511Z,94339.88
2023-03-08T14:18:39.705Z,94349.97
2023-03-08T14:21:13.439Z,94339.00
2023-03-08T14:23:43.416Z,94331.66
2023-03-08T14:26:32.071Z,94333.28
2023-03-08T14:29:17.943Z,94328.47
2023-03-08T14:32:04.529Z,94344.84
2023-03-08T14:34:36.389Z,94333.19
2023-03-08T14:37:07.860Z,94320.25
2023-03-08T14:39:37.343Z,94333.13
2023-03-08T14:42:17.956Z,94351.88
2023-03-08T14:44:52.506Z,94340.91
2023-03-08T14:47:24.090Z,94330.38
2023-03-08T14:50:03.718Z,94353.84
2023-03-08T14:52:33.909Z,94334.41
2023-03-08T14:55:03.306Z,94334.44
2023-03-08T14:57:31.878Z,94310.94
2023-03-08T15:00:08.602Z,94338.16
2023-03-08T15:02:37.809Z,94310.16
2023-03-08T15:05:09.093Z,94314.72
2023-03-08T15:07:38.135Z,94324.75
2023-03-08T15:10:08.590Z,94305.75
2023-03-08T15:12:36.832Z,94290.09
2023-03-08T15:15:14.524Z,94315.06
2023-03-08T15:17:43.930Z,94290.16
2023-03-08T15:20:13.739Z,94313.94
2023-03-08T15:22:45.901Z,94319.91
2023-03-08T15:25:15.622Z,94278.16
2023-03-08T15:27:43.868Z,94282.72
2023-03-08T15:30:21.342Z,94308.72
2023-03-08T15:32:49.809Z,94291.28
2023-03-08T15:35:18.610Z,94251.16
2023-03-08T15:37:46.913Z,94271.72
2023-03-08T15:40:17.056Z,94276.00
2023-03-08T15:42:45.341Z,94257.97
2023-03-08T15:45:14.922Z,94267.78
2023-03-08T15:47:44.818Z,94264.50
2023-03-08T15:50:16.280Z,94265.22
2023-03-08T15:52:45.321Z,94250.75
2023-03-08T15:55:14.734Z,94256.13
2023-03-08T15:57:43.434Z,94256.47
2023-03-08T16:00:15.693Z,94240.00
2023-03-08T16:02:45.770Z,94246.94
2023-03-08T16:05:15.565Z,94237.44
2023-03-08T16:07:43.948Z,94219.88
2023-03-08T16:10:17.740Z,94235.63
2023-03-08T16:12:45.985Z,94226.94
2023-03-08T16:15:14.251Z,94247.50
2023-03-08T16:17:42.487Z,94222.91
2023-03-08T16:20:13.469Z,94218.47
2023-03-08T16:22:42.323Z,94215.94
2023-03-08T16:25:11.277Z,94243.63
2023-03-08T16:27:39.525Z,94232.66
2023-03-08T16:30:09.138Z,94220.47
2023-03-08T16:32:37.466Z,94230.38
2023-03-08T16:35:06.479Z,94233.97
2023-03-08T16:37:36.115Z,94219.53
2023-03-08T16:40:07.382Z,94230.72
2023-03-08T16:42:35.918Z,94216.91
2023-03-08T16:45:05.108Z,94209.88
2023-03-08T16:47:33.665Z,94207.75
2023-03-08T16:50:02.803Z,94221.34
2023-03-08T16:52:31.125Z,94229.41
2023-03-08T16:55:00.704Z,94224.72
2023-03-08T16:57:28.933Z,94227.78
2023-03-08T16:59:57.243Z,94224.19
2023-03-08T17:02:25.577Z,94224.84
2023-03-08T17:04:53.940Z,94219.84
2023-03-08T17:07:22.204Z,94215.09
2023-03-08T17:09:50.915Z,94207.47
2023-03-08T17:12:20.478Z,94232.13
2023-03-08T17:14:48.734Z,94238.16
2023-03-08T17:17:16.993Z,94240.63
2023-03-08T17:19:46.327Z,94222.97
2023-03-08T17:22:14.662Z,94225.84
2023-03-08T17:24:42.966Z,94227.91
2023-03-08T17:27:11.211Z,94230.38
2023-03-08T17:29:40.833Z,94250.66
2023-03-08T17:32:09.284Z,94241.16
2023-03-08T17:34:37.660Z,94251.06
2023-03-08T17:37:11.368Z,94250.44
2023-03-08T17:39:39.898Z,94248.16
2023-03-08T17:42:08.468Z,94249.06
2023-03-08T17:44:36.844Z,94264.09
2023-03-08T17:47:06.648Z,94248.88
2023-03-08T17:49:34.902Z,94256.06
2023-03-08T17:52:03.142Z,94259.81
2023-03-08T17:54:31.430Z,94259.19
2023-03-08T17:56:59.781Z,94249.84
2023-03-08T17:59:28.038Z,94244.53
2023-03-08T18:01:56.679Z,94250.94
2023-03-08T18:04:26.344Z,94256.09
2023-03-08T18:06:54.687Z,94268.09
2023-03-08T18:09:23.963Z,94268.16
2023-03-08T18:11:52.295Z,94262.00
2023-03-08T18:14:26.207Z,94281.19
2023-03-08T18:17:03.156Z,94274.38
2023-03-08T18:19:32.758Z,94254.78
2023-03-08T18:22:00.954Z,94263.66
2023-03-08T18:24:29.258Z,94265.47
2023-03-08T18:26:58.302Z,94271.41
2023-03-08T18:29:26.563Z,94281.81
2023-03-08T18:31:54.779Z,94267.16
2023-03-08T18:34:23.032Z,94275.78
2023-03-08T18:36:52.586Z,94280.53
2023-03-08T18:39:21.539Z,94260.53
2023-03-08T18:41:49.846Z,94287.44
2023-03-08T18:44:18.080Z,94281.19
2023-03-08T18:46:46.442Z,94280.81
2023-03-08T18:49:14.798Z,94277.97
2023-03-08T18:51:43.739Z,94287.88
2023-03-08T18:54:14.917Z,94288.31
2023-03-08T18:56:43.163Z,94293.34
2023-03-08T18:59:13.396Z,94292.22
2023-03-08T19:01:41.705Z,94291.56
2023-03-08T19:04:09.925Z,94292.75
2023-03-08T19:06:38.561Z,94288.47
2023-03-08T19:09:10.627Z,94289.88
2023-03-08T19:11:40.275Z,94276.56
2023-03-08T19:14:09.299Z,94301.66
2023-03-08T19:16:37.613Z,94309.78
2023-03-08T19:19:07.193Z,94297.03
2023-03-08T19:21:37.160Z,94326.19
2023-03-08T19:24:05.656Z,94317.16
2023-03-08T19:26:37.802Z,94323.41
2023-03-08T19:29:10.120Z,94335.53
2023-03-08T19:31:40.497Z,94333.34
2023-03-08T19:34:10.347Z,94332.66
2023-03-08T19:36:39.138Z,94297.75
2023-03-08T19:39:09.300Z,94325.03
2023-03-08T19:41:37.594Z,94332.09
2023-03-08T19:44:07.776Z,94323.31
2023-03-08T19:46:36.466Z,94334.03
2023-03-08T19:49:07.488Z,94329.41
2023-03-08T19:51:36.426Z,94325.47
2023-03-08T19:54:06.194Z,94327.63
2023-03-08T19:56:34.874Z,94343.00
2023-03-08T19:59:03.164Z,94342.28
2023-03-08T20:01:32.839Z,94344.69
2023-03-08T20:04:01.112Z,94335.34
2023-03-08T20:06:31.720Z,94348.03
2023-03-08T20:08:59.963Z,94336.16
2023-03-08T20:11:28.373Z,94326.19
2023-03-08T20:13:56.893Z,94334.34
2023-03-08T20:16:26.031Z,94344.91
2023-03-08T20:18:57.445Z,94330.16
2023-03-08T20:21:27.959Z,94348.78
2023-03-08T20:23:57.491Z,94366.88
2023-03-08T20:26:27.156Z,94367.69
2023-03-08T20:28:56.197Z,94377.13
2023-03-08T20:31:25.008Z,94379.16
2023-03-08T20:33:53.297Z,94370.66
2023-03-08T20:36:23.668Z,94369.16
2023-03-08T20:38:52.058Z,94361.34
2023-03-08T20:41:21.622Z,94349.91
2023-03-08T20:43:51.379Z,94338.69
2023-03-08T20:46:22.303Z,94326.34
2023-03-08T20:48:52.274Z,94317.03
2023-03-08T20:51:23.904Z,94333.94
2023-03-08T20:53:54.473Z,94334.50
2023-03-08T20:56:23.093Z,94333.03
2023-03-08T20:58:54.367Z,94332.91
2023-03-08T21:01:25.725Z,94331.63
2023-03-08T21:03:54.064Z,94332.97
2023-03-08T21:06:25.900Z,94324.25
2023-03-08T21:08:54.632Z,94301.91
2023-03-08T21:11:23.601Z,94304.28
2023-03-08T21:13:52.802Z,94292.63
2023-03-08T21:16:22.609Z,94294.91
2023-03-08T21:18:51.440Z,94293.88
2023-03-08T21:21:21.789Z,94284.94
2023-03-08T21:23:54.015Z,94290.44
2023-03-08T21:26:22.432Z,94282.78
2023-03-08T21:28:50.700Z,94273.50
2023-03-08T21:31:20.025Z,94274.56
2023-03-08T21:33:48.533Z,94285.44
2023-03-08T21:36:17.348Z,94289.19
2023-03-08T21:38:45.627Z,94286.38
2023-03-08T21:41:18.820Z,94280.00
2023-03-08T21:43:47.072Z,94284.13
2023-03-08T21:46:16.444Z,94282.34
2023-03-08T21:48:44.846Z,94273.50
2023-03-08T21:51:13.692Z,94282.25
2023-03-08T21:53:42.362Z,94273.47
2023-03-08T21:56:11.548Z,94267.88
2023-03-08T21:58:41.436Z,94263.94
2023-03-08T22:01:18.798Z,94277.56
2023-03-08T22:03:47.388Z,94268.28
2023-03-08T22:06:15.759Z,94287.50
2023-03-08T22:08:44.018Z,94282.53
2023-03-08T22:11:12.381Z,94290.41
2023-03-08T22:13:42.925Z,94286.53
2023-03-08T22:16:11.352Z,94274.91
2023-03-08T22:18:39.844Z,94274.88
2023-03-08T22:21:08.080Z,94258.34
2023-03-08T22:23:36.418Z,94254.06
2023-03-08T22:26:08.148Z,94243.16
2023-03-08T22:28:36.605Z,94241.56
2023-03-08T22:31:11.549Z,94225.97
2023-03-08T22:33:40.278Z,94223.31
2023-03-08T22:36:10.272Z,94223.69
2023-03-08T22:38:39.141Z,94213.63
2023-03-08T22:41:10.370Z,94219.81
2023-03-08T22:43:38.623Z,94215.47
2023-03-08T22:46:08.555Z,94211.19
2023-03-08T22:48:38.214Z,94205.63
2023-03-08T22:51:11.197Z,94216.41
2023-03-08T22:53:40.502Z,94210.16
2023-03-08T22:56:11.280Z,94201.81
2023-03-08T22:58:39.488Z,94203.44
2023-03-08T23:01:14.174Z,94203.66
2023-03-08T23:03:43.888Z,94200.59
2023-03-08T23:06:12.112Z,94204.31
2023-03-08T23:08:40.452Z,94197.00
2023-03-08T23:11:10.224Z,94204.47
2023-03-08T23:13:38.466Z,94203.09
2023-03-08T23:16:07.743Z,94209.91
2023-03-08T23:18:36.432Z,94213.34
2023-03-08T23:21:07.565Z,94206.53
2023-03-08T23:23:36.098Z,94206.97
2023-03-08T23:26:04.546Z,94199.00
2023-03-08T23:28:35.523Z,94207.09
2023-03-08T23:31:04.462Z,94203.38
2023-03-08T23:33:32.795Z,94214.59
2023-03-08T23:36:01.063Z,94214.72
2023-03-08T23:38:30.710Z,94208.22
2023-03-08T23:40:59.088Z,94209.78
2023-03-08T23:43:27.363Z,94207.25
2023-03-08T23:45:55.676Z,94217.19
2023-03-08T23:48:24.011Z,94201.47
2023-03-08T23:50:52.365Z,94198.38
2023-03-08T23:53:20.674Z,94203.34
2023-03-08T23:55:50.291Z,94207.22
2023-03-08T23:58:18.595Z,94211.50
